sensor_id;sensor_type;location;lat;lon;timestamp;P1;durP1;ratioP1;P2;durP2;ratioP2
11837;SDS011;5978;51.020;6.764;2023-08-01T00:00:00;3.77;;;0.77;;
11837;SDS011;5978;51.020;6.764;2023-08-01T00:02:28;2.60;;;0.70;;
11837;SDS011;5978;51.020;6.764;2023-08-01T00:04:54;1.13;;;0.80;;
11837;SDS011;5978;51.020;6.764;2023-08-01T00:07:19;1.10;;;0.73;;
11837;SDS011;5978;51.020;6.764;2023-08-01T00:09:45;1.50;;;1.00;;
11837;SDS011;5978;51.020;6.764;2023-08-01T00:12:10;0.70;;;0.60;;
11837;SDS011;5978;51.020;6.764;2023-08-01T00:14:36;2.40;;;0.70;;
11837;SDS011;5978;51.020;6.764;2023-08-01T00:17:05;1.10;;;0.80;;
11837;SDS011;5978;51.020;6.764;2023-08-01T00:19:30;4.50;;;1.17;;
11837;SDS011;5978;51.020;6.764;2023-08-01T00:21:56;1.20;;;1.00;;
11837;SDS011;5978;51.020;6.764;2023-08-01T00:24:22;1.03;;;0.60;;
11837;SDS011;5978;51.020;6.764;2023-08-01T00:26:47;2.60;;;0.87;;
11837;SDS011;5978;51.020;6.764;2023-08-01T00:29:13;1.10;;;0.87;;
11837;SDS011;5978;51.020;6.764;2023-08-01T00:31:38;1.20;;;0.73;;
11837;SDS011;5978;51.020;6.764;2023-08-01T00:34:04;2.83;;;0.80;;
11837;SDS011;5978;51.020;6.764;2023-08-01T00:36:30;1.23;;;0.80;;
11837;SDS011;5978;51.020;6.764;2023-08-01T00:38:55;2.20;;;0.80;;
11837;SDS011;5978;51.020;6.764;2023-08-01T00:41:21;1.00;;;0.70;;
11837;SDS011;5978;51.020;6.764;2023-08-01T00:43:46;1.50;;;0.87;;
11837;SDS011;5978;51.020;6.764;2023-08-01T00:46:12;1.27;;;0.80;;
11837;SDS011;5978;51.020;6.764;2023-08-01T00:48:38;1.00;;;0.70;;
11837;SDS011;5978;51.020;6.764;2023-08-01T00:51:04;5.33;;;0.80;;
11837;SDS011;5978;51.020;6.764;2023-08-01T00:53:31;1.63;;;0.87;;
11837;SDS011;5978;51.020;6.764;2023-08-01T00:55:58;1.23;;;0.60;;
11837;SDS011;5978;51.020;6.764;2023-08-01T00:58:24;2.90;;;1.03;;
11837;SDS011;5978;51.020;6.764;2023-08-01T01:00:50;3.10;;;0.50;;
11837;SDS011;5978;51.020;6.764;2023-08-01T01:03:16;3.17;;;0.70;;
11837;SDS011;5978;51.020;6.764;2023-08-01T01:05:43;0.87;;;0.60;;
11837;SDS011;5978;51.020;6.764;2023-08-01T01:08:17;0.80;;;0.70;;
11837;SDS011;5978;51.020;6.764;2023-08-01T01:10:43;0.90;;;0.60;;
11837;SDS011;5978;51.020;6.764;2023-08-01T01:13:08;3.20;;;0.70;;
11837;SDS011;5978;51.020;6.764;2023-08-01T01:15:34;1.30;;;0.90;;
11837;SDS011;5978;51.020;6.764;2023-08-01T01:17:59;1.07;;;0.70;;
11837;SDS011;5978;51.020;6.764;2023-08-01T01:20:25;1.33;;;1.00;;
11837;SDS011;5978;51.020;6.764;2023-08-01T01:22:51;1.30;;;0.70;;
11837;SDS011;5978;51.020;6.764;2023-08-01T01:25:19;0.90;;;0.80;;
11837;SDS011;5978;51.020;6.764;2023-08-01T01:27:47;1.33;;;0.80;;
11837;SDS011;5978;51.020;6.764;2023-08-01T01:30:14;0.90;;;0.60;;
11837;SDS011;5978;51.020;6.764;2023-08-01T01:32:41;1.00;;;0.90;;
11837;SDS011;5978;51.020;6.764;2023-08-01T01:35:07;1.43;;;0.70;;
11837;SDS011;5978;51.020;6.764;2023-08-01T01:37:32;0.90;;;0.83;;
11837;SDS011;5978;51.020;6.764;2023-08-01T01:39:58;1.63;;;1.07;;
11837;SDS011;5978;51.020;6.764;2023-08-01T01:45:35;1.00;;;0.83;;
11837;SDS011;5978;51.020;6.764;2023-08-01T01:48:01;1.03;;;0.93;;
11837;SDS011;5978;51.020;6.764;2023-08-01T01:50:26;1.30;;;0.80;;
11837;SDS011;5978;51.020;6.764;2023-08-01T01:52:52;1.10;;;0.70;;
11837;SDS011;5978;51.020;6.764;2023-08-01T01:55:18;0.90;;;0.77;;
11837;SDS011;5978;51.020;6.764;2023-08-01T01:57:43;1.23;;;1.00;;
11837;SDS011;5978;51.020;6.764;2023-08-01T02:00:09;0.90;;;0.80;;
11837;SDS011;5978;51.020;6.764;2023-08-01T02:02:35;1.00;;;0.70;;
11837;SDS011;5978;51.020;6.764;2023-08-01T02:05:01;2.53;;;0.90;;
11837;SDS011;5978;51.020;6.764;2023-08-01T02:07:29;1.67;;;0.80;;
11837;SDS011;5978;51.020;6.764;2023-08-01T02:09:54;1.37;;;0.90;;
11837;SDS011;5978;51.020;6.764;2023-08-01T02:12:20;3.23;;;1.00;;
11837;SDS011;5978;51.020;6.764;2023-08-01T02:14:46;1.40;;;1.20;;
11837;SDS011;5978;51.020;6.764;2023-08-01T02:17:11;1.20;;;1.10;;
11837;SDS011;5978;51.020;6.764;2023-08-01T02:19:37;2.20;;;1.60;;
11837;SDS011;5978;51.020;6.764;2023-08-01T02:22:03;2.20;;;1.13;;
11837;SDS011;5978;51.020;6.764;2023-08-01T02:24:29;1.33;;;1.23;;
11837;SDS011;5978;51.020;6.764;2023-08-01T02:26:55;2.03;;;1.70;;
11837;SDS011;5978;51.020;6.764;2023-08-01T02:29:20;1.60;;;1.43;;
11837;SDS011;5978;51.020;6.764;2023-08-01T02:31:46;2.13;;;1.50;;
11837;SDS011;5978;51.020;6.764;2023-08-01T02:34:12;1.67;;;1.57;;
11837;SDS011;5978;51.020;6.764;2023-08-01T02:36:37;1.50;;;1.40;;
11837;SDS011;5978;51.020;6.764;2023-08-01T02:39:05;3.03;;;1.40;;
11837;SDS011;5978;51.020;6.764;2023-08-01T02:41:31;1.40;;;1.30;;
11837;SDS011;5978;51.020;6.764;2023-08-01T02:43:57;2.17;;;1.93;;
11837;SDS011;5978;51.020;6.764;2023-08-01T02:46:22;2.30;;;1.57;;
11837;SDS011;5978;51.020;6.764;2023-08-01T02:48:48;3.27;;;1.50;;
11837;SDS011;5978;51.020;6.764;2023-08-01T02:51:13;1.93;;;1.57;;
11837;SDS011;5978;51.020;6.764;2023-08-01T02:53:39;2.90;;;1.83;;
11837;SDS011;5978;51.020;6.764;2023-08-01T02:56:07;2.40;;;1.93;;
11837;SDS011;5978;51.020;6.764;2023-08-01T02:58:35;3.27;;;2.40;;
11837;SDS011;5978;51.020;6.764;2023-08-01T03:01:01;4.03;;;3.47;;
11837;SDS011;5978;51.020;6.764;2023-08-01T03:03:26;6.97;;;3.07;;
11837;SDS011;5978;51.020;6.764;2023-08-01T03:05:52;5.40;;;3.80;;
11837;SDS011;5978;51.020;6.764;2023-08-01T03:08:18;6.40;;;3.83;;
11837;SDS011;5978;51.020;6.764;2023-08-01T03:10:44;5.00;;;3.80;;
11837;SDS011;5978;51.020;6.764;2023-08-01T03:13:10;4.60;;;4.07;;
11837;SDS011;5978;51.020;6.764;2023-08-01T03:15:36;4.77;;;4.33;;
11837;SDS011;5978;51.020;6.764;2023-08-01T03:18:02;5.40;;;4.40;;
11837;SDS011;5978;51.020;6.764;2023-08-01T03:20:29;8.30;;;5.27;;
11837;SDS011;5978;51.020;6.764;2023-08-01T03:22:54;5.20;;;4.70;;
11837;SDS011;5978;51.020;6.764;2023-08-01T03:25:20;4.70;;;4.27;;
11837;SDS011;5978;51.020;6.764;2023-08-01T03:27:45;7.93;;;5.90;;
11837;SDS011;5978;51.020;6.764;2023-08-01T03:30:11;6.63;;;5.60;;
11837;SDS011;5978;51.020;6.764;2023-08-01T03:32:37;6.77;;;6.17;;
11837;SDS011;5978;51.020;6.764;2023-08-01T03:35:05;6.77;;;5.77;;
11837;SDS011;5978;51.020;6.764;2023-08-01T03:37:31;11.60;;;7.50;;
11837;SDS011;5978;51.020;6.764;2023-08-01T03:39:57;6.90;;;6.20;;
11837;SDS011;5978;51.020;6.764;2023-08-01T03:42:23;7.17;;;6.47;;
11837;SDS011;5978;51.020;6.764;2023-08-01T03:44:48;13.27;;;7.10;;
11837;SDS011;5978;51.020;6.764;2023-08-01T03:47:14;11.80;;;8.37;;
11837;SDS011;5978;51.020;6.764;2023-08-01T03:49:40;11.47;;;8.43;;
11837;SDS011;5978;51.020;6.764;2023-08-01T03:52:05;12.13;;;7.83;;
11837;SDS011;5978;51.020;6.764;2023-08-01T03:54:31;12.33;;;7.83;;
11837;SDS011;5978;51.020;6.764;2023-08-01T03:56:57;10.20;;;9.00;;
11837;SDS011;5978;51.020;6.764;2023-08-01T03:59:22;10.90;;;8.53;;
11837;SDS011;5978;51.020;6.764;2023-08-01T04:01:48;11.63;;;8.47;;
11837;SDS011;5978;51.020;6.764;2023-08-01T04:04:15;18.87;;;10.50;;
11837;SDS011;5978;51.020;6.764;2023-08-01T04:06:41;18.00;;;9.60;;
11837;SDS011;5978;51.020;6.764;2023-08-01T04:09:07;15.90;;;9.27;;
11837;SDS011;5978;51.020;6.764;2023-08-01T04:11:32;14.90;;;9.43;;
11837;SDS011;5978;51.020;6.764;2023-08-01T04:13:58;11.47;;;8.70;;
11837;SDS011;5978;51.020;6.764;2023-08-01T04:16:24;13.63;;;8.60;;
11837;SDS011;5978;51.020;6.764;2023-08-01T04:18:49;14.70;;;8.77;;
11837;SDS011;5978;51.020;6.764;2023-08-01T04:21:15;9.87;;;7.70;;
11837;SDS011;5978;51.020;6.764;2023-08-01T04:23:41;15.90;;;9.20;;
11837;SDS011;5978;51.020;6.764;2023-08-01T04:26:06;9.30;;;6.30;;
11837;SDS011;5978;51.020;6.764;2023-08-01T04:28:32;10.13;;;6.20;;
11837;SDS011;5978;51.020;6.764;2023-08-01T04:30:59;8.90;;;7.03;;
11837;SDS011;5978;51.020;6.764;2023-08-01T04:33:24;14.43;;;7.30;;
11837;SDS011;5978;51.020;6.764;2023-08-01T04:35:50;8.93;;;7.20;;
11837;SDS011;5978;51.020;6.764;2023-08-01T04:38:15;9.10;;;6.93;;
11837;SDS011;5978;51.020;6.764;2023-08-01T04:40:41;9.20;;;6.63;;
11837;SDS011;5978;51.020;6.764;2023-08-01T04:43:07;12.13;;;7.90;;
11837;SDS011;5978;51.020;6.764;2023-08-01T04:45:32;15.90;;;7.37;;
11837;SDS011;5978;51.020;6.764;2023-08-01T04:47:58;10.33;;;6.90;;
11837;SDS011;5978;51.020;6.764;2023-08-01T04:50:24;15.53;;;7.93;;
11837;SDS011;5978;51.020;6.764;2023-08-01T04:52:49;9.07;;;7.03;;
11837;SDS011;5978;51.020;6.764;2023-08-01T04:55:15;10.13;;;8.70;;
11837;SDS011;5978;51.020;6.764;2023-08-01T04:57:40;12.70;;;7.20;;
11837;SDS011;5978;51.020;6.764;2023-08-01T05:00:06;9.83;;;6.57;;
11837;SDS011;5978;51.020;6.764;2023-08-01T05:02:34;9.97;;;7.60;;
11837;SDS011;5978;51.020;6.764;2023-08-01T05:05:00;10.13;;;7.83;;
11837;SDS011;5978;51.020;6.764;2023-08-01T05:07:25;14.07;;;8.20;;
11837;SDS011;5978;51.020;6.764;2023-08-01T05:09:51;12.20;;;8.40;;
11837;SDS011;5978;51.020;6.764;2023-08-01T05:12:16;14.87;;;7.87;;
11837;SDS011;5978;51.020;6.764;2023-08-01T05:14:42;12.67;;;7.40;;
11837;SDS011;5978;51.020;6.764;2023-08-01T05:17:07;12.40;;;8.30;;
11837;SDS011;5978;51.020;6.764;2023-08-01T05:19:33;12.03;;;7.47;;
11837;SDS011;5978;51.020;6.764;2023-08-01T05:21:58;12.87;;;7.07;;
11837;SDS011;5978;51.020;6.764;2023-08-01T05:24:24;11.93;;;7.27;;
11837;SDS011;5978;51.020;6.764;2023-08-01T05:26:50;12.90;;;7.50;;
11837;SDS011;5978;51.020;6.764;2023-08-01T05:29:15;13.20;;;7.07;;
11837;SDS011;5978;51.020;6.764;2023-08-01T05:31:41;11.37;;;6.40;;
11837;SDS011;5978;51.020;6.764;2023-08-01T05:34:06;9.33;;;6.90;;
11837;SDS011;5978;51.020;6.764;2023-08-01T05:36:32;7.07;;;6.23;;
11837;SDS011;5978;51.020;6.764;2023-08-01T05:38:57;13.23;;;8.07;;
11837;SDS011;5978;51.020;6.764;2023-08-01T05:41:23;11.73;;;6.60;;
11837;SDS011;5978;51.020;6.764;2023-08-01T05:43:48;13.47;;;7.10;;
11837;SDS011;5978;51.020;6.764;2023-08-01T05:46:15;7.87;;;7.07;;
11837;SDS011;5978;51.020;6.764;2023-08-01T05:48:41;12.57;;;6.37;;
11837;SDS011;5978;51.020;6.764;2023-08-01T05:51:06;8.83;;;5.97;;
11837;SDS011;5978;51.020;6.764;2023-08-01T05:53:32;12.27;;;6.73;;
11837;SDS011;5978;51.020;6.764;2023-08-01T05:55:58;9.70;;;6.90;;
11837;SDS011;5978;51.020;6.764;2023-08-01T06:01:41;12.17;;;7.73;;
11837;SDS011;5978;51.020;6.764;2023-08-01T06:04:11;10.57;;;6.47;;
11837;SDS011;5978;51.020;6.764;2023-08-01T06:06:37;16.00;;;6.57;;
11837;SDS011;5978;51.020;6.764;2023-08-01T06:09:02;9.20;;;6.60;;
11837;SDS011;5978;51.020;6.764;2023-08-01T06:11:28;10.03;;;6.60;;
11837;SDS011;5978;51.020;6.764;2023-08-01T06:13:53;14.63;;;6.00;;
11837;SDS011;5978;51.020;6.764;2023-08-01T06:16:19;9.80;;;6.23;;
11837;SDS011;5978;51.020;6.764;2023-08-01T06:18:45;10.03;;;6.00;;
11837;SDS011;5978;51.020;6.764;2023-08-01T06:21:11;13.57;;;6.70;;
11837;SDS011;5978;51.020;6.764;2023-08-01T06:23:36;9.47;;;6.87;;
11837;SDS011;5978;51.020;6.764;2023-08-01T06:26:02;14.23;;;7.37;;
11837;SDS011;5978;51.020;6.764;2023-08-01T06:28:27;11.40;;;5.97;;
11837;SDS011;5978;51.020;6.764;2023-08-01T06:30:53;10.33;;;6.20;;
11837;SDS011;5978;51.020;6.764;2023-08-01T06:33:18;9.00;;;6.43;;
11837;SDS011;5978;51.020;6.764;2023-08-01T06:35:44;11.40;;;6.00;;
11837;SDS011;5978;51.020;6.764;2023-08-01T06:38:09;9.53;;;5.73;;
11837;SDS011;5978;51.020;6.764;2023-08-01T06:40:35;7.07;;;5.70;;
11837;SDS011;5978;51.020;6.764;2023-08-01T06:43:00;10.23;;;4.97;;
11837;SDS011;5978;51.020;6.764;2023-08-01T06:45:26;7.53;;;5.80;;
11837;SDS011;5978;51.020;6.764;2023-08-01T06:47:52;10.27;;;6.30;;
11837;SDS011;5978;51.020;6.764;2023-08-01T06:50:18;13.97;;;6.10;;
11837;SDS011;5978;51.020;6.764;2023-08-01T06:52:43;10.83;;;6.47;;
11837;SDS011;5978;51.020;6.764;2023-08-01T06:55:09;10.07;;;6.83;;
11837;SDS011;5978;51.020;6.764;2023-08-01T06:57:35;11.53;;;6.93;;
11837;SDS011;5978;51.020;6.764;2023-08-01T07:00:00;9.90;;;6.33;;
11837;SDS011;5978;51.020;6.764;2023-08-01T07:02:26;13.97;;;7.20;;
11837;SDS011;5978;51.020;6.764;2023-08-01T07:04:52;14.50;;;6.10;;
11837;SDS011;5978;51.020;6.764;2023-08-01T07:07:17;12.87;;;7.37;;
11837;SDS011;5978;51.020;6.764;2023-08-01T07:09:43;12.60;;;6.27;;
11837;SDS011;5978;51.020;6.764;2023-08-01T07:12:08;12.43;;;6.93;;
11837;SDS011;5978;51.020;6.764;2023-08-01T07:14:35;11.30;;;6.03;;
11837;SDS011;5978;51.020;6.764;2023-08-01T07:17:01;9.50;;;6.83;;
11837;SDS011;5978;51.020;6.764;2023-08-01T07:19:26;12.03;;;6.90;;
11837;SDS011;5978;51.020;6.764;2023-08-01T07:21:52;9.90;;;6.20;;
11837;SDS011;5978;51.020;6.764;2023-08-01T07:24:18;11.57;;;6.50;;
11837;SDS011;5978;51.020;6.764;2023-08-01T07:26:44;14.67;;;6.83;;
11837;SDS011;5978;51.020;6.764;2023-08-01T07:29:09;6.50;;;5.90;;
11837;SDS011;5978;51.020;6.764;2023-08-01T07:31:36;11.50;;;6.50;;
11837;SDS011;5978;51.020;6.764;2023-08-01T07:34:11;9.20;;;7.13;;
11837;SDS011;5978;51.020;6.764;2023-08-01T07:39:42;13.37;;;6.33;;
11837;SDS011;5978;51.020;6.764;2023-08-01T07:42:08;11.20;;;6.30;;
11837;SDS011;5978;51.020;6.764;2023-08-01T07:47:42;10.10;;;6.10;;
11837;SDS011;5978;51.020;6.764;2023-08-01T07:50:11;6.20;;;5.57;;
11837;SDS011;5978;51.020;6.764;2023-08-01T07:52:36;11.80;;;6.00;;
11837;SDS011;5978;51.020;6.764;2023-08-01T07:55:02;10.83;;;5.70;;
11837;SDS011;5978;51.020;6.764;2023-08-01T07:57:28;9.67;;;6.00;;
11837;SDS011;5978;51.020;6.764;2023-08-01T07:59:53;9.03;;;5.97;;
11837;SDS011;5978;51.020;6.764;2023-08-01T08:02:19;10.60;;;6.10;;
11837;SDS011;5978;51.020;6.764;2023-08-01T08:04:45;8.70;;;5.37;;
11837;SDS011;5978;51.020;6.764;2023-08-01T08:07:10;6.77;;;5.10;;
11837;SDS011;5978;51.020;6.764;2023-08-01T08:09:36;6.47;;;4.43;;
11837;SDS011;5978;51.020;6.764;2023-08-01T08:12:02;7.47;;;5.10;;
11837;SDS011;5978;51.020;6.764;2023-08-01T08:14:28;14.20;;;5.47;;
11837;SDS011;5978;51.020;6.764;2023-08-01T08:16:55;14.17;;;5.50;;
11837;SDS011;5978;51.020;6.764;2023-08-01T08:19:20;11.27;;;6.37;;
11837;SDS011;5978;51.020;6.764;2023-08-01T08:21:49;7.27;;;6.20;;
11837;SDS011;5978;51.020;6.764;2023-08-01T08:24:14;5.70;;;5.10;;
11837;SDS011;5978;51.020;6.764;2023-08-01T08:29:36;8.40;;;5.23;;
11837;SDS011;5978;51.020;6.764;2023-08-01T08:32:02;8.50;;;5.90;;
11837;SDS011;5978;51.020;6.764;2023-08-01T08:34:28;5.33;;;4.80;;
11837;SDS011;5978;51.020;6.764;2023-08-01T08:36:53;13.77;;;5.53;;
11837;SDS011;5978;51.020;6.764;2023-08-01T08:39:19;7.60;;;5.77;;
11837;SDS011;5978;51.020;6.764;2023-08-01T08:41:45;8.00;;;4.97;;
11837;SDS011;5978;51.020;6.764;2023-08-01T08:44:16;7.17;;;4.73;;
11837;SDS011;5978;51.020;6.764;2023-08-01T08:46:42;10.63;;;6.20;;
11837;SDS011;5978;51.020;6.764;2023-08-01T08:49:09;6.03;;;5.43;;
11837;SDS011;5978;51.020;6.764;2023-08-01T08:51:38;6.43;;;4.97;;
11837;SDS011;5978;51.020;6.764;2023-08-01T08:54:04;8.57;;;5.30;;
11837;SDS011;5978;51.020;6.764;2023-08-01T08:56:31;9.13;;;4.83;;
11837;SDS011;5978;51.020;6.764;2023-08-01T08:58:58;7.20;;;5.00;;
11837;SDS011;5978;51.020;6.764;2023-08-01T09:01:25;9.33;;;4.83;;
11837;SDS011;5978;51.020;6.764;2023-08-01T09:03:51;8.37;;;4.83;;
11837;SDS011;5978;51.020;6.764;2023-08-01T09:06:19;7.10;;;4.90;;
11837;SDS011;5978;51.020;6.764;2023-08-01T09:08:55;7.03;;;4.30;;
11837;SDS011;5978;51.020;6.764;2023-08-01T09:11:26;8.17;;;6.13;;
11837;SDS011;5978;51.020;6.764;2023-08-01T09:13:52;10.20;;;5.37;;
11837;SDS011;5978;51.020;6.764;2023-08-01T09:16:18;6.93;;;4.80;;
11837;SDS011;5978;51.020;6.764;2023-08-01T09:18:51;8.27;;;4.67;;
11837;SDS011;5978;51.020;6.764;2023-08-01T09:21:17;6.17;;;4.23;;
11837;SDS011;5978;51.020;6.764;2023-08-01T09:23:44;6.87;;;4.67;;
11837;SDS011;5978;51.020;6.764;2023-08-01T09:26:16;6.70;;;4.47;;
11837;SDS011;5978;51.020;6.764;2023-08-01T09:28:43;6.70;;;4.17;;
11837;SDS011;5978;51.020;6.764;2023-08-01T09:34:04;5.00;;;4.50;;
11837;SDS011;5978;51.020;6.764;2023-08-01T09:36:42;7.90;;;4.63;;
11837;SDS011;5978;51.020;6.764;2023-08-01T09:39:08;4.07;;;3.70;;
11837;SDS011;5978;51.020;6.764;2023-08-01T09:41:41;6.63;;;4.47;;
11837;SDS011;5978;51.020;6.764;2023-08-01T09:44:10;11.87;;;4.97;;
11837;SDS011;5978;51.020;6.764;2023-08-01T09:46:36;5.10;;;4.47;;
11837;SDS011;5978;51.020;6.764;2023-08-01T09:49:08;8.37;;;5.20;;
11837;SDS011;5978;51.020;6.764;2023-08-01T09:51:45;5.50;;;4.10;;
11837;SDS011;5978;51.020;6.764;2023-08-01T09:54:15;5.40;;;3.70;;
11837;SDS011;5978;51.020;6.764;2023-08-01T09:56:43;10.83;;;5.10;;
11837;SDS011;5978;51.020;6.764;2023-08-01T09:59:10;5.03;;;3.80;;
11837;SDS011;5978;51.020;6.764;2023-08-01T10:01:36;7.40;;;4.80;;
11837;SDS011;5978;51.020;6.764;2023-08-01T10:04:04;7.40;;;4.07;;
11837;SDS011;5978;51.020;6.764;2023-08-01T10:06:32;7.37;;;4.60;;
11837;SDS011;5978;51.020;6.764;2023-08-01T10:08:59;7.20;;;4.17;;
11837;SDS011;5978;51.020;6.764;2023-08-01T10:11:25;6.10;;;3.60;;
11837;SDS011;5978;51.020;6.764;2023-08-01T10:13:52;15.80;;;4.20;;
11837;SDS011;5978;51.020;6.764;2023-08-01T10:16:18;10.53;;;4.13;;
11837;SDS011;5978;51.020;6.764;2023-08-01T10:18:43;9.53;;;4.40;;
11837;SDS011;5978;51.020;6.764;2023-08-01T10:21:13;5.07;;;4.00;;
11837;SDS011;5978;51.020;6.764;2023-08-01T10:23:41;4.13;;;3.83;;
11837;SDS011;5978;51.020;6.764;2023-08-01T10:26:08;7.40;;;4.60;;
11837;SDS011;5978;51.020;6.764;2023-08-01T10:28:36;7.40;;;4.60;;
11837;SDS011;5978;51.020;6.764;2023-08-01T10:31:07;7.10;;;3.93;;
11837;SDS011;5978;51.020;6.764;2023-08-01T10:33:41;4.50;;;3.67;;
11837;SDS011;5978;51.020;6.764;2023-08-01T10:36:14;4.97;;;3.80;;
11837;SDS011;5978;51.020;6.764;2023-08-01T10:38:44;6.60;;;4.53;;
11837;SDS011;5978;51.020;6.764;2023-08-01T10:49:15;9.63;;;3.70;;
11837;SDS011;5978;51.020;6.764;2023-08-01T10:51:42;3.93;;;3.50;;
11837;SDS011;5978;51.020;6.764;2023-08-01T10:56:48;5.80;;;3.20;;
11837;SDS011;5978;51.020;6.764;2023-08-01T10:59:15;6.57;;;4.10;;
11837;SDS011;5978;51.020;6.764;2023-08-01T11:01:45;6.80;;;3.30;;
11837;SDS011;5978;51.020;6.764;2023-08-01T11:04:19;4.27;;;2.80;;
11837;SDS011;5978;51.020;6.764;2023-08-01T11:06:47;5.83;;;3.70;;
11837;SDS011;5978;51.020;6.764;2023-08-01T11:09:24;7.30;;;3.20;;
11837;SDS011;5978;51.020;6.764;2023-08-01T11:11:57;12.13;;;4.10;;
11837;SDS011;5978;51.020;6.764;2023-08-01T11:14:28;3.53;;;3.23;;
11837;SDS011;5978;51.020;6.764;2023-08-01T11:16:54;7.60;;;3.10;;
11837;SDS011;5978;51.020;6.764;2023-08-01T11:19:25;4.33;;;3.57;;
11837;SDS011;5978;51.020;6.764;2023-08-01T11:21:52;3.80;;;2.83;;
11837;SDS011;5978;51.020;6.764;2023-08-01T11:24:19;4.30;;;3.00;;
11837;SDS011;5978;51.020;6.764;2023-08-01T11:26:46;4.70;;;3.60;;
11837;SDS011;5978;51.020;6.764;2023-08-01T11:29:13;4.43;;;3.17;;
11837;SDS011;5978;51.020;6.764;2023-08-01T11:31:40;6.10;;;3.23;;
11837;SDS011;5978;51.020;6.764;2023-08-01T11:34:06;3.67;;;2.80;;
11837;SDS011;5978;51.020;6.764;2023-08-01T11:36:35;7.63;;;2.90;;
11837;SDS011;5978;51.020;6.764;2023-08-01T11:39:01;5.13;;;3.00;;
11837;SDS011;5978;51.020;6.764;2023-08-01T11:41:28;4.93;;;2.77;;
11837;SDS011;5978;51.020;6.764;2023-08-01T11:43:54;5.20;;;3.10;;
11837;SDS011;5978;51.020;6.764;2023-08-01T11:46:20;3.73;;;3.23;;
11837;SDS011;5978;51.020;6.764;2023-08-01T11:48:47;4.93;;;2.80;;
11837;SDS011;5978;51.020;6.764;2023-08-01T11:51:13;5.30;;;3.13;;
11837;SDS011;5978;51.020;6.764;2023-08-01T11:53:38;8.13;;;3.63;;
11837;SDS011;5978;51.020;6.764;2023-08-01T11:56:04;3.73;;;2.80;;
11837;SDS011;5978;51.020;6.764;2023-08-01T11:58:39;5.57;;;3.17;;
11837;SDS011;5978;51.020;6.764;2023-08-01T12:01:10;7.23;;;3.20;;
11837;SDS011;5978;51.020;6.764;2023-08-01T12:03:47;7.43;;;2.90;;
11837;SDS011;5978;51.020;6.764;2023-08-01T12:06:13;3.37;;;2.77;;
11837;SDS011;5978;51.020;6.764;2023-08-01T12:08:40;7.43;;;3.50;;
11837;SDS011;5978;51.020;6.764;2023-08-01T12:11:16;4.07;;;2.47;;
11837;SDS011;5978;51.020;6.764;2023-08-01T12:13:59;5.53;;;2.90;;
11837;SDS011;5978;51.020;6.764;2023-08-01T12:16:28;4.50;;;2.57;;
11837;SDS011;5978;51.020;6.764;2023-08-01T12:18:56;5.50;;;2.80;;
11837;SDS011;5978;51.020;6.764;2023-08-01T12:21:25;2.93;;;2.73;;
11837;SDS011;5978;51.020;6.764;2023-08-01T12:23:50;4.13;;;2.77;;
11837;SDS011;5978;51.020;6.764;2023-08-01T12:26:16;4.00;;;3.13;;
11837;SDS011;5978;51.020;6.764;2023-08-01T12:34:29;5.90;;;4.40;;
11837;SDS011;5978;51.020;6.764;2023-08-01T12:36:55;6.40;;;4.43;;
11837;SDS011;5978;51.020;6.764;2023-08-01T12:39:20;5.20;;;3.83;;
11837;SDS011;5978;51.020;6.764;2023-08-01T12:41:46;8.07;;;4.80;;
11837;SDS011;5978;51.020;6.764;2023-08-01T12:44:11;5.27;;;4.23;;
11837;SDS011;5978;51.020;6.764;2023-08-01T12:46:40;6.23;;;4.40;;
11837;SDS011;5978;51.020;6.764;2023-08-01T12:49:06;6.90;;;4.40;;
11837;SDS011;5978;51.020;6.764;2023-08-01T12:51:31;7.13;;;5.07;;
11837;SDS011;5978;51.020;6.764;2023-08-01T12:53:57;5.27;;;3.30;;
11837;SDS011;5978;51.020;6.764;2023-08-01T12:56:23;4.60;;;3.10;;
11837;SDS011;5978;51.020;6.764;2023-08-01T12:58:48;3.90;;;3.50;;
11837;SDS011;5978;51.020;6.764;2023-08-01T13:01:14;3.90;;;3.50;;
11837;SDS011;5978;51.020;6.764;2023-08-01T13:03:39;4.17;;;3.10;;
11837;SDS011;5978;51.020;6.764;2023-08-01T13:06:05;8.73;;;4.17;;
11837;SDS011;5978;51.020;6.764;2023-08-01T13:08:30;3.03;;;2.83;;
11837;SDS011;5978;51.020;6.764;2023-08-01T13:10:56;5.50;;;3.53;;
11837;SDS011;5978;51.020;6.764;2023-08-01T13:13:24;7.20;;;3.67;;
11837;SDS011;5978;51.020;6.764;2023-08-01T13:15:50;4.90;;;3.60;;
11837;SDS011;5978;51.020;6.764;2023-08-01T13:18:16;9.63;;;3.87;;
11837;SDS011;5978;51.020;6.764;2023-08-01T13:20:42;3.57;;;3.27;;
11837;SDS011;5978;51.020;6.764;2023-08-01T13:23:08;4.50;;;3.93;;
11837;SDS011;5978;51.020;6.764;2023-08-01T13:25:34;9.07;;;4.67;;
11837;SDS011;5978;51.020;6.764;2023-08-01T13:28:00;5.93;;;3.77;;
11837;SDS011;5978;51.020;6.764;2023-08-01T13:30:26;6.33;;;4.03;;
11837;SDS011;5978;51.020;6.764;2023-08-01T13:32:51;5.07;;;3.40;;
11837;SDS011;5978;51.020;6.764;2023-08-01T13:35:17;4.20;;;3.80;;
11837;SDS011;5978;51.020;6.764;2023-08-01T13:37:43;4.63;;;3.43;;
11837;SDS011;5978;51.020;6.764;2023-08-01T13:40:08;4.53;;;3.80;;
11837;SDS011;5978;51.020;6.764;2023-08-01T13:42:36;4.30;;;3.87;;
11837;SDS011;5978;51.020;6.764;2023-08-01T13:45:02;5.80;;;3.70;;
11837;SDS011;5978;51.020;6.764;2023-08-01T13:47:28;5.07;;;3.80;;
11837;SDS011;5978;51.020;6.764;2023-08-01T13:49:53;3.47;;;3.17;;
11837;SDS011;5978;51.020;6.764;2023-08-01T13:52:19;7.00;;;3.70;;
11837;SDS011;5978;51.020;6.764;2023-08-01T13:54:45;6.17;;;3.60;;
11837;SDS011;5978;51.020;6.764;2023-08-01T13:57:10;4.27;;;3.87;;
11837;SDS011;5978;51.020;6.764;2023-08-01T13:59:36;5.37;;;3.23;;
11837;SDS011;5978;51.020;6.764;2023-08-01T14:02:01;6.57;;;4.03;;
11837;SDS011;5978;51.020;6.764;2023-08-01T14:04:28;5.57;;;4.37;;
11837;SDS011;5978;51.020;6.764;2023-08-01T14:06:53;5.80;;;4.17;;
11837;SDS011;5978;51.020;6.764;2023-08-01T14:09:20;5.50;;;3.73;;
11837;SDS011;5978;51.020;6.764;2023-08-01T14:11:45;6.43;;;4.17;;
11837;SDS011;5978;51.020;6.764;2023-08-01T14:14:11;5.10;;;4.47;;
11837;SDS011;5978;51.020;6.764;2023-08-01T14:16:36;9.60;;;3.90;;
11837;SDS011;5978;51.020;6.764;2023-08-01T14:19:02;6.50;;;4.10;;
11837;SDS011;5978;51.020;6.764;2023-08-01T14:21:29;3.90;;;3.60;;
11837;SDS011;5978;51.020;6.764;2023-08-01T14:23:55;6.90;;;3.87;;
11837;SDS011;5978;51.020;6.764;2023-08-01T14:26:21;5.47;;;4.03;;
11837;SDS011;5978;51.020;6.764;2023-08-01T14:28:46;8.90;;;3.73;;
11837;SDS011;5978;51.020;6.764;2023-08-01T14:31:13;4.77;;;2.90;;
11837;SDS011;5978;51.020;6.764;2023-08-01T14:33:38;5.53;;;3.50;;
11837;SDS011;5978;51.020;6.764;2023-08-01T14:36:07;4.70;;;3.67;;
11837;SDS011;5978;51.020;6.764;2023-08-01T14:38:34;5.67;;;3.37;;
11837;SDS011;5978;51.020;6.764;2023-08-01T14:41:01;5.63;;;3.80;;
11837;SDS011;5978;51.020;6.764;2023-08-01T14:43:27;16.23;;;3.60;;
11837;SDS011;5978;51.020;6.764;2023-08-01T14:45:53;5.90;;;3.03;;
11837;SDS011;5978;51.020;6.764;2023-08-01T14:48:18;7.03;;;3.17;;
11837;SDS011;5978;51.020;6.764;2023-08-01T14:50:45;4.50;;;2.80;;
11837;SDS011;5978;51.020;6.764;2023-08-01T14:53:11;3.37;;;2.80;;
11837;SDS011;5978;51.020;6.764;2023-08-01T14:55:37;4.70;;;3.10;;
11837;SDS011;5978;51.020;6.764;2023-08-01T14:58:02;4.97;;;2.80;;
11837;SDS011;5978;51.020;6.764;2023-08-01T15:00:28;15.43;;;5.30;;
11837;SDS011;5978;51.020;6.764;2023-08-01T15:02:54;3.00;;;2.43;;
11837;SDS011;5978;51.020;6.764;2023-08-01T15:05:19;4.73;;;2.63;;
11837;SDS011;5978;51.020;6.764;2023-08-01T15:07:46;4.60;;;2.50;;
11837;SDS011;5978;51.020;6.764;2023-08-01T15:10:11;4.50;;;2.67;;
11837;SDS011;5978;51.020;6.764;2023-08-01T15:12:37;5.30;;;2.73;;
11837;SDS011;5978;51.020;6.764;2023-08-01T15:15:03;4.40;;;2.87;;
11837;SDS011;5978;51.020;6.764;2023-08-01T15:17:29;7.40;;;2.67;;
11837;SDS011;5978;51.020;6.764;2023-08-01T15:19:55;3.90;;;2.63;;
11837;SDS011;5978;51.020;6.764;2023-08-01T15:22:21;5.37;;;3.20;;
11837;SDS011;5978;51.020;6.764;2023-08-01T15:24:47;4.33;;;3.07;;
11837;SDS011;5978;51.020;6.764;2023-08-01T15:27:13;3.63;;;2.70;;